createdAt,value
2023-05-14T00:02:02.928Z,33.63
2023-05-14T00:05:06.822Z,33.10
2023-05-14T00:08:09.910Z,33.10
2023-05-14T00:11:14.419Z,33.43
2023-05-14T00:14:17.451Z,34.23
2023-05-14T00:17:20.559Z,34.50
2023-05-14T00:20:23.809Z,34.30
2023-05-14T00:23:26.977Z,34.67
2023-05-14T00:26:31.443Z,34.20
2023-05-14T00:29:34.486Z,33.77
2023-05-14T00:32:37.582Z,35.63
2023-05-14T00:35:40.695Z,34.37
2023-05-14T00:38:43.834Z,34.80
2023-05-14T00:41:48.334Z,33.57
2023-05-14T00:44:51.329Z,35.10
2023-05-14T00:47:54.746Z,36.27
2023-05-14T00:50:58.028Z,35.03
2023-05-14T00:54:01.105Z,36.30
2023-05-14T00:57:07.498Z,34.23
2023-05-14T01:00:11.332Z,36.27
2023-05-14T01:03:14.524Z,35.37
2023-05-14T01:06:25.913Z,36.33
2023-05-14T01:09:37.578Z,35.47
2023-05-14T01:12:50.686Z,36.20
2023-05-14T01:15:57.175Z,36.57
2023-05-14T01:19:02.619Z,36.53
2023-05-14T01:22:07.422Z,37.93
2023-05-14T01:25:11.200Z,36.87
2023-05-14T01:28:19.139Z,37.33
2023-05-14T01:31:28.794Z,36.80
2023-05-14T01:34:33.037Z,36.20
2023-05-14T01:37:39.160Z,36.30
2023-05-14T01:40:43.096Z,37.43
2023-05-14T01:43:46.793Z,36.27
2023-05-14T01:46:49.856Z,37.03
2023-05-14T01:49:52.866Z,37.50
2023-05-14T01:52:57.542Z,36.40
2023-05-14T01:56:00.628Z,36.43
2023-05-14T01:59:03.696Z,36.30
2023-05-14T02:02:06.772Z,36.13
2023-05-14T02:05:11.544Z,36.20
2023-05-14T02:08:16.109Z,36.67
2023-05-14T02:11:19.306Z,36.40
2023-05-14T02:14:22.434Z,36.50
2023-05-14T02:17:27.388Z,36.43
2023-05-14T02:20:30.465Z,37.13
2023-05-14T02:23:41.619Z,36.97
2023-05-14T02:26:47.625Z,34.07
2023-05-14T02:29:50.722Z,35.70
2023-05-14T02:32:53.943Z,36.20
2023-05-14T02:35:57.125Z,36.70
2023-05-14T02:39:01.964Z,36.83
2023-05-14T02:42:05.319Z,35.57
2023-05-14T02:45:09.054Z,34.30
2023-05-14T02:48:12.179Z,36.00
2023-05-14T02:51:16.295Z,35.43
2023-05-14T02:54:20.786Z,35.67
2023-05-14T02:57:23.930Z,36.67
2023-05-14T03:00:26.995Z,36.00
2023-05-14T03:03:31.017Z,37.40
2023-05-14T03:06:34.732Z,35.40
2023-05-14T03:09:39.177Z,34.50
2023-05-14T03:12:42.286Z,33.63
2023-05-14T03:15:45.453Z,33.27
2023-05-14T03:18:48.776Z,33.97
2023-05-14T03:21:51.835Z,33.17
2023-05-14T03:24:56.389Z,31.10
2023-05-14T03:27:59.497Z,31.87
2023-05-14T03:31:02.710Z,31.93
2023-05-14T03:34:05.890Z,33.03
2023-05-14T03:37:08.936Z,34.27
2023-05-14T03:40:14.092Z,31.40
2023-05-14T03:43:17.554Z,31.87
2023-05-14T03:46:20.630Z,31.17
2023-05-14T03:49:23.736Z,34.17
2023-05-14T03:52:26.812Z,31.03
2023-05-14T03:55:31.379Z,31.03
2023-05-14T03:58:34.499Z,29.47
2023-05-14T04:01:37.701Z,29.73
2023-05-14T04:04:41.148Z,29.77
2023-05-14T04:07:45.893Z,28.43
2023-05-14T04:10:50.397Z,27.43
2023-05-14T04:13:53.553Z,29.67
2023-05-14T04:16:56.735Z,29.60
2023-05-14T04:19:59.820Z,28.67
2023-05-14T04:23:02.909Z,27.50
2023-05-14T04:26:07.505Z,26.97
2023-05-14T04:29:10.629Z,27.73
2023-05-14T04:32:14.133Z,27.10
2023-05-14T04:35:17.331Z,27.73
2023-05-14T04:38:20.491Z,26.43
2023-05-14T04:41:24.981Z,25.53
2023-05-14T04:44:28.138Z,24.77
2023-05-14T04:47:31.275Z,26.70
2023-05-14T04:50:34.425Z,25.53
2023-05-14T04:53:37.620Z,25.43
2023-05-14T04:56:42.063Z,25.07
2023-05-14T04:59:45.199Z,24.30
2023-05-14T05:02:48.371Z,25.17
2023-05-14T05:05:52.110Z,24.87
2023-05-14T05:08:55.132Z,25.40
2023-05-14T05:11:59.514Z,23.20
2023-05-14T05:15:02.539Z,22.83
2023-05-14T05:18:06.520Z,24.43
2023-05-14T05:21:09.547Z,23.23
2023-05-14T05:24:13.532Z,23.80
2023-05-14T05:27:18.418Z,21.70
2023-05-14T05:30:21.783Z,22.10
2023-05-14T05:33:24.981Z,22.53
2023-05-14T05:36:28.780Z,21.53
2023-05-14T05:39:35.311Z,22.40
2023-05-14T05:42:40.201Z,20.90
2023-05-14T05:45:43.246Z,20.73
2023-05-14T05:48:46.291Z,20.37
2023-05-14T05:51:49.269Z,19.13
2023-05-14T05:54:52.290Z,19.20
2023-05-14T05:57:56.755Z,16.70
2023-05-14T06:01:00.258Z,17.70
2023-05-14T06:04:04.569Z,17.97
2023-05-14T06:07:07.592Z,18.13
2023-05-14T06:10:10.761Z,17.23
2023-05-14T06:13:15.222Z,17.80
2023-05-14T06:16:18.372Z,16.57
2023-05-14T06:19:21.510Z,15.90
2023-05-14T06:22:25.053Z,16.07
2023-05-14T06:25:28.088Z,17.60
2023-05-14T06:28:35.630Z,17.83
2023-05-14T06:31:38.797Z,16.50
2023-05-14T06:34:41.881Z,15.40
2023-05-14T06:37:44.815Z,17.40
2023-05-14T06:40:47.829Z,15.20
2023-05-14T06:43:52.208Z,15.63
2023-05-14T06:46:55.246Z,15.40
2023-05-14T06:49:58.881Z,14.67
2023-05-14T06:53:01.862Z,14.40
2023-05-14T06:56:05.204Z,14.90
2023-05-14T06:59:09.711Z,13.80
2023-05-14T07:02:13.369Z,13.50
2023-05-14T07:05:16.446Z,14.73
2023-05-14T07:08:19.486Z,12.90
2023-05-14T07:11:23.175Z,13.50
2023-05-14T07:14:27.687Z,13.30
2023-05-14T07:17:30.861Z,13.27
2023-05-14T07:20:34.032Z,12.40
2023-05-14T07:23:38.439Z,12.80
2023-05-14T07:26:41.756Z,13.23
2023-05-14T07:29:46.292Z,12.30
2023-05-14T07:32:49.432Z,12.47
2023-05-14T07:35:52.986Z,11.40
2023-05-14T07:38:56.306Z,12.43
2023-05-14T07:41:59.334Z,11.47
2023-05-14T07:45:04.095Z,10.93
2023-05-14T07:48:07.321Z,10.80
2023-05-14T07:51:10.577Z,11.47
2023-05-14T07:54:13.678Z,10.80
2023-05-14T07:57:16.849Z,11.10
2023-05-14T08:00:21.788Z,11.00
2023-05-14T08:03:25.194Z,10.57
2023-05-14T08:06:29.613Z,10.50
2023-05-14T08:09:32.697Z,11.03
2023-05-14T08:12:35.729Z,10.70
2023-05-14T08:15:40.279Z,14.70
2023-05-14T08:18:43.316Z,12.83
2023-05-14T08:21:46.484Z,11.97
2023-05-14T08:24:49.723Z,13.33
2023-05-14T08:27:54.192Z,11.50
2023-05-14T08:30:58.648Z,13.37
2023-05-14T08:34:01.977Z,16.00
2023-05-14T08:37:05.271Z,11.90
2023-05-14T08:40:10.267Z,9.10
2023-05-14T08:43:15.775Z,13.80
2023-05-14T08:46:24.653Z,8.03
2023-05-14T08:49:40.383Z,8.87
2023-05-14T08:52:43.500Z,10.23
2023-05-14T08:55:47.252Z,14.90
2023-05-14T08:58:50.296Z,14.60
2023-05-14T09:01:55.873Z,14.97
2023-05-14T09:05:00.960Z,12.07
2023-05-14T09:08:04.011Z,11.00
2023-05-14T09:11:07.111Z,11.53
2023-05-14T09:14:11.388Z,8.67
2023-05-14T09:17:16.678Z,10.50
2023-05-14T09:20:20.262Z,9.70
2023-05-14T09:23:23.264Z,11.30
2023-05-14T09:26:27.270Z,10.37
2023-05-14T09:29:31.205Z,8.20
2023-05-14T09:32:59.331Z,8.40
2023-05-14T09:36:07.285Z,8.20
2023-05-14T09:42:42.797Z,8.10
2023-05-14T09:45:45.818Z,7.60
2023-05-14T09:48:50.389Z,6.93
2023-05-14T09:51:53.533Z,6.77
2023-05-14T09:54:56.790Z,6.77
2023-05-14T09:57:59.852Z,7.00
2023-05-14T10:01:03.701Z,7.30
2023-05-14T10:04:10.304Z,6.77
2023-05-14T10:07:14.185Z,5.77
2023-05-14T10:10:19.866Z,6.90
2023-05-14T10:13:28.601Z,5.23
2023-05-14T10:16:35.412Z,4.90
2023-05-14T10:19:41.076Z,4.57
2023-05-14T10:22:44.153Z,4.10
2023-05-14T10:25:47.513Z,3.83
2023-05-14T10:28:50.954Z,4.00
2023-05-14T10:31:55.850Z,3.93
2023-05-14T10:35:03.156Z,4.40
2023-05-14T10:38:10.075Z,3.73
2023-05-14T10:41:15.756Z,4.23
2023-05-14T10:44:18.911Z,4.00
2023-05-14T10:47:22.576Z,3.30
2023-05-14T10:50:27.916Z,3.60
2023-05-14T10:53:35.701Z,3.63
2023-05-14T10:56:38.785Z,3.70
2023-05-14T10:59:43.664Z,3.40
2023-05-14T11:02:46.972Z,3.13
2023-05-14T11:05:51.663Z,4.67
2023-05-14T11:08:55.637Z,3.40
2023-05-14T11:11:58.696Z,3.53
2023-05-14T11:15:04.697Z,3.53
2023-05-14T11:18:07.827Z,4.10
2023-05-14T11:21:12.336Z,3.70
2023-05-14T11:24:15.444Z,3.10
2023-05-14T11:27:19.011Z,4.10
2023-05-14T11:30:23.090Z,9.03
2023-05-14T11:33:28.690Z,6.80
2023-05-14T11:36:33.024Z,6.53
2023-05-14T11:39:37.662Z,4.80
2023-05-14T11:42:40.739Z,5.10
2023-05-14T11:45:43.895Z,4.90
2023-05-14T11:48:48.838Z,3.73
2023-05-14T11:51:58.561Z,4.60
2023-05-14T11:55:01.572Z,3.97
2023-05-14T11:58:04.628Z,3.83
2023-05-14T12:01:07.683Z,3.80
2023-05-14T12:04:11.166Z,4.20
2023-05-14T12:07:17.515Z,3.90
2023-05-14T12:10:20.633Z,4.37
2023-05-14T12:13:26.465Z,4.27
2023-05-14T12:16:33.184Z,3.70
2023-05-14T12:19:41.865Z,4.90
2023-05-14T12:22:46.219Z,4.20
2023-05-14T12:25:52.532Z,4.43
2023-05-14T12:29:00.686Z,4.50
2023-05-14T12:32:06.046Z,4.90
2023-05-14T12:35:09.888Z,5.60
2023-05-14T12:38:14.302Z,5.90
2023-05-14T12:41:17.450Z,5.97
2023-05-14T12:44:22.638Z,6.40
2023-05-14T12:47:25.810Z,6.80
2023-05-14T12:50:28.883Z,7.23
2023-05-14T12:53:33.401Z,8.23
2023-05-14T12:56:37.825Z,8.23
2023-05-14T12:59:41.149Z,9.60
2023-05-14T13:02:44.316Z,11.30
2023-05-14T13:05:47.479Z,34.67
2023-05-14T13:08:51.891Z,237.47
2023-05-14T13:11:55.026Z,272.60
2023-05-14T13:14:58.045Z,264.63
2023-05-14T13:18:01.108Z,246.20
2023-05-14T13:21:06.508Z,235.10
2023-05-14T13:24:11.243Z,221.67
2023-05-14T13:27:14.255Z,208.83
2023-05-14T13:30:17.919Z,200.53
2023-05-14T13:33:20.924Z,179.47
2023-05-14T13:36:23.973Z,164.60
2023-05-14T13:39:28.333Z,132.00
2023-05-14T13:42:31.527Z,123.40
2023-05-14T13:45:34.563Z,115.43
2023-05-14T13:48:37.742Z,92.87
2023-05-14T13:51:40.772Z,50.17
2023-05-14T13:54:45.117Z,41.67
2023-05-14T13:57:48.170Z,39.77
2023-05-14T14:00:51.421Z,37.73
2023-05-14T14:03:54.497Z,36.07
2023-05-14T14:06:57.775Z,29.80
2023-05-14T14:10:02.398Z,18.50
2023-05-14T14:13:05.405Z,23.60
2023-05-14T14:16:08.532Z,21.40
2023-05-14T14:19:11.740Z,19.50
2023-05-14T14:22:17.388Z,16.00
2023-05-14T14:25:22.067Z,14.43
2023-05-14T14:28:25.524Z,15.27
2023-05-14T14:31:28.599Z,12.37
2023-05-14T14:34:31.587Z,11.70
2023-05-14T14:37:34.654Z,10.97
2023-05-14T14:40:39.077Z,12.70
2023-05-14T14:43:43.553Z,13.30
2023-05-14T14:46:46.553Z,12.60
2023-05-14T14:49:49.502Z,13.20
2023-05-14T14:52:52.611Z,11.30
2023-05-14T14:55:57.642Z,11.50
2023-05-14T14:59:00.704Z,13.00
2023-05-14T15:02:03.890Z,8.33
2023-05-14T15:05:08.119Z,8.00
2023-05-14T15:08:11.385Z,7.30
2023-05-14T15:11:15.929Z,8.80
2023-05-14T15:14:18.985Z,9.33
2023-05-14T15:17:22.061Z,8.77
2023-05-14T15:20:25.242Z,12.00
2023-05-14T15:23:28.386Z,9.87
2023-05-14T15:26:33.224Z,10.53
2023-05-14T15:29:36.348Z,6.80
2023-05-14T15:32:39.415Z,6.63
2023-05-14T15:35:42.436Z,6.17
2023-05-14T15:38:45.511Z,8.53
2023-05-14T15:41:49.924Z,7.37
2023-05-14T15:44:53.022Z,9.20
2023-05-14T15:47:56.144Z,8.17
2023-05-14T15:50:59.464Z,6.07
2023-05-14T15:54:02.619Z,5.90
2023-05-14T15:57:07.654Z,6.40
2023-05-14T16:00:17.714Z,6.80
2023-05-14T16:03:21.075Z,6.47
2023-05-14T16:06:24.284Z,6.13
2023-05-14T16:09:27.411Z,5.53
2023-05-14T16:12:31.847Z,5.30
2023-05-14T16:15:34.922Z,4.87
2023-05-14T16:18:39.030Z,5.30
2023-05-14T16:21:42.323Z,4.97
2023-05-14T16:24:46.068Z,4.63
2023-05-14T16:27:50.597Z,4.83
2023-05-14T16:30:53.762Z,5.30
2023-05-14T16:33:56.875Z,4.20
2023-05-14T16:37:00.799Z,4.27
2023-05-14T16:40:03.915Z,20.23
2023-05-14T16:43:08.511Z,21.10
2023-05-14T16:46:11.661Z,19.37
2023-05-14T16:49:15.296Z,18.67
2023-05-14T16:52:18.634Z,17.10
2023-05-14T16:55:21.981Z,16.00
2023-05-14T16:58:26.534Z,15.10
2023-05-14T17:01:29.665Z,14.87
2023-05-14T17:04:33.483Z,13.50
2023-05-14T17:07:38.502Z,12.80
2023-05-14T17:10:41.623Z,13.83
2023-05-14T17:13:46.123Z,12.20
2023-05-14T17:16:49.993Z,12.73
2023-05-14T17:19:53.165Z,12.37
2023-05-14T17:22:56.267Z,13.27
2023-05-14T17:25:59.419Z,14.50
2023-05-14T17:29:03.904Z,14.57
2023-05-14T17:32:07.581Z,15.10
2023-05-14T17:35:11.773Z,14.30
2023-05-14T17:38:15.017Z,13.43
2023-05-14T17:41:18.130Z,11.90
2023-05-14T17:44:22.752Z,12.50
2023-05-14T17:47:25.819Z,12.27
2023-05-14T17:50:28.936Z,12.13
2023-05-14T17:53:32.052Z,12.00
2023-05-14T17:56:35.391Z,11.90
2023-05-14T17:59:39.932Z,13.23
2023-05-14T18:02:43.119Z,14.50
2023-05-14T18:05:46.329Z,12.67
2023-05-14T18:08:50.030Z,13.03
2023-05-14T18:11:54.660Z,13.50
2023-05-14T18:15:00.709Z,13.40
2023-05-14T18:18:03.928Z,12.00
2023-05-14T18:21:07.047Z,11.50
2023-05-14T18:24:10.504Z,12.73
2023-05-14T18:27:13.655Z,11.03
2023-05-14T18:30:18.230Z,10.43
2023-05-14T18:33:21.248Z,11.00
2023-05-14T18:36:24.334Z,11.37
2023-05-14T18:39:27.826Z,12.40
2023-05-14T18:42:30.903Z,10.67
2023-05-14T18:45:35.491Z,10.30
2023-05-14T18:48:38.548Z,11.10
2023-05-14T18:51:41.664Z,10.47
2023-05-14T18:54:44.749Z,9.73
2023-05-14T18:57:47.973Z,8.93
2023-05-14T19:00:52.933Z,9.77
2023-05-14T19:03:56.262Z,10.07
2023-05-14T19:06:59.721Z,10.00
2023-05-14T19:10:03.761Z,9.70
2023-05-14T19:13:06.811Z,12.00
2023-05-14T19:16:11.602Z,12.53
2023-05-14T19:19:15.158Z,12.07
2023-05-14T19:22:19.697Z,10.67
2023-05-14T19:25:22.832Z,12.03
2023-05-14T19:28:25.939Z,10.23
2023-05-14T19:31:30.485Z,11.00
2023-05-14T19:34:33.640Z,10.70
2023-05-14T19:37:36.693Z,9.80
2023-05-14T19:40:39.701Z,10.23
2023-05-14T19:43:42.830Z,9.60
2023-05-14T19:46:47.380Z,11.40
2023-05-14T19:49:50.520Z,10.40
2023-05-14T19:52:53.560Z,10.07
2023-05-14T19:55:56.716Z,9.00
2023-05-14T19:58:59.722Z,9.60
2023-05-14T20:02:04.820Z,8.60
2023-05-14T20:05:10.640Z,9.70
2023-05-14T20:08:13.679Z,7.60
2023-05-14T20:11:18.136Z,9.07
2023-05-14T20:14:21.161Z,9.17
2023-05-14T20:17:25.581Z,8.60
2023-05-14T20:20:32.683Z,9.00
2023-05-14T20:23:36.443Z,8.83
2023-05-14T20:26:39.479Z,10.03
2023-05-14T20:29:42.474Z,33.47
2023-05-14T20:32:46.959Z,25.60
2023-05-14T20:35:50.074Z,23.87
2023-05-14T20:38:53.557Z,23.10
2023-05-14T20:41:56.540Z,24.40
2023-05-14T20:44:59.540Z,17.90
2023-05-14T20:48:08.090Z,16.93
2023-05-14T20:51:11.208Z,16.80
2023-05-14T20:54:14.235Z,16.10
2023-05-14T20:57:17.742Z,16.80
2023-05-14T21:00:21.259Z,17.80
2023-05-14T21:03:25.832Z,15.30
2023-05-14T21:06:28.985Z,14.77
2023-05-14T21:09:31.981Z,14.87
2023-05-14T21:12:35.059Z,15.00
2023-05-14T21:15:38.191Z,14.50
2023-05-14T21:18:42.572Z,14.00
2023-05-14T21:21:45.778Z,14.90
2023-05-14T21:24:48.783Z,13.53
2023-05-14T21:27:51.808Z,14.17
2023-05-14T21:30:54.803Z,14.43
2023-05-14T21:33:59.190Z,13.33
2023-05-14T21:37:02.217Z,13.00
2023-05-14T21:40:05.511Z,14.07
2023-05-14T21:43:08.442Z,13.10
2023-05-14T21:46:11.520Z,13.00
2023-05-14T21:49:15.911Z,12.50
2023-05-14T21:52:18.961Z,12.90
2023-05-14T21:55:22.366Z,12.60
2023-05-14T21:58:25.758Z,12.20
2023-05-14T22:01:28.876Z,12.53
2023-05-14T22:04:33.441Z,11.40
2023-05-14T22:07:36.498Z,11.60
2023-05-14T22:10:39.455Z,12.93
2023-05-14T22:13:42.500Z,10.93
2023-05-14T22:16:45.639Z,11.63
2023-05-14T22:19:50.164Z,11.80
2023-05-14T22:22:53.252Z,10.70
2023-05-14T22:25:56.300Z,10.53
2023-05-14T22:28:59.302Z,10.83
2023-05-14T22:32:02.279Z,10.40
2023-05-14T22:35:07.060Z,11.70
2023-05-14T22:38:10.108Z,10.93
2023-05-14T22:41:13.603Z,11.00
2023-05-14T22:44:16.564Z,10.70
2023-05-14T22:47:19.655Z,11.20
2023-05-14T22:50:24.098Z,10.27
2023-05-14T22:53:27.093Z,10.40
2023-05-14T22:56:30.175Z,9.83
2023-05-14T22:59:33.183Z,9.90
2023-05-14T23:02:36.407Z,10.20
2023-05-14T23:05:40.937Z,9.80
2023-05-14T23:08:43.967Z,8.70
2023-05-14T23:11:47.394Z,9.00
2023-05-14T23:14:50.407Z,8.70
2023-05-14T23:17:53.590Z,9.00
2023-05-14T23:20:58.257Z,7.90
2023-05-14T23:24:01.277Z,9.27
2023-05-14T23:27:04.529Z,9.07
2023-05-14T23:30:08.661Z,9.20
2023-05-14T23:33:11.955Z,8.70
2023-05-14T23:36:16.696Z,8.33
2023-05-14T23:39:19.745Z,8.93
2023-05-14T23:42:22.751Z,8.77
2023-05-14T23:45:26.115Z,7.60
2023-05-14T23:48:29.560Z,8.43
2023-05-14T23:51:34.010Z,8.30
2023-05-14T23:54:37.070Z,7.90
2023-05-14T23:57:41.018Z,8.20
